LIRQ/FLR METAR and TAF weather

Enter ICAO airport designator
Station Type Date Time Source
LIRQ METAR 2022/08/12 15:20 UTC NOAA

LIRQ 121520Z 24007KT 200V310 9999 FEW040TCU SCT060 33/11 Q1011


Station Type Date Time Source
LIRQ Decoded METAR 2022/08/12 15:20 UTC NOAA

Firenze / Peretola, Italy (LIRQ) 43-48N 011-12E 38M
Aug 12, 2022 - 11:20 AM EDT / 2022.08.12 1520 UTC
Wind: from the WSW (240 degrees) at 8 MPH (7 KT) (direction variable):0
Visibility: greater than 7 mile(s):0
Sky conditions: partly cloudy
Weather: Towering cumulus clouds observed
Temperature: 91 F (33 C)
Dew Point: 51 F (11 C)
Relative Humidity: 26%
Pressure (altimeter): 29.85 in. Hg (1011 hPa)
ob: LIRQ 121520Z 24007KT 200V310 9999 FEW040TCU SCT060 33/11 Q1011
cycle: 15

Station Type Date Time Source
LIRQ TAF 2022/08/12 12:21 UTC NOAA

TAF LIRQ 121100Z 1212/1312 06013KT 9999 SCT050
BECMG 1216/1218 VRB05KT
TEMPO 1222/1303 4000 TSRA
BECMG 1310/1312 04010KT

Example: see airport list